EET,Max TemperatureF,Mean TemperatureF,Min TemperatureF,Max Dew PointF,MeanDew PointF,Min DewpointF,Max Humidity, Mean Humidity, Min Humidity, Max Sea Level PressureIn, Mean Sea Level PressureIn, Min Sea Level PressureIn, Max VisibilityMiles, Mean VisibilityMiles, Min VisibilityMiles, Max Wind SpeedMPH, Mean Wind SpeedMPH, Max Gust SpeedMPH,PrecipitationIn, CloudCover, Events, WindDirDegrees
2013-5-1,95,80,64,57,47,36,60,35,7,29.95,29.87,29.77,6,3,1,18,9,,0.00,,,11
2013-5-2,90,78,66,62,52,39,78,43,19,29.86,29.81,29.74,6,3,1,21,8,,0.00,,,355
2013-5-3,90,78,66,63,56,50,83,51,19,29.83,29.79,29.71,6,3,1,17,8,,0.00,,,2
2013-5-4,96,81,66,63,52,34,83,46,10,29.89,29.83,29.77,6,2,1,23,10,,0.00,,,15
2013-5-5,94,80,67,61,49,36,78,39,7,29.95,29.89,29.83,6,4,2,16,10,,0.00,,,24
2013-5-6,91,79,67,61,52,38,64,42,8,29.92,29.88,29.83,6,3,2,17,8,,0.00,,,7
2013-5-7,92,80,68,64,57,50,88,51,20,29.92,29.87,29.83,6,2,1,16,9,,0.00,,,351
2013-5-8,88,78,68,66,59,48,88,56,19,29.92,29.85,29.80,6,3,2,22,9,,0.00,,,334
2013-5-9,87,78,68,64,56,48,83,52,19,29.89,29.86,29.80,6,5,2,22,9,,0.00,3,,351
2013-5-10,92,80,69,63,53,36,78,48,8,29.95,29.85,29.77,6,4,2,24,13,,0.00,3,,24
2013-5-11,86,77,68,59,51,45,68,41,17,29.89,29.84,29.77,6,6,6,21,8,,0.00,2,,328
2013-5-12,81,74,66,59,54,48,78,53,26,29.92,29.89,29.86,6,6,4,13,8,,0.00,3,,323
2013-5-13,94,82,69,59,48,39,60,34,8,29.89,29.80,29.65,6,4,1,26,16,,0.00,,,211
2013-5-14,81,72,64,55,48,37,64,42,15,29.86,29.83,29.77,6,6,6,23,9,,0.00,3,,288
2013-5-15,80,73,66,57,53,50,73,52,27,29.98,29.87,29.83,6,6,6,15,11,,0.00,5,,287
2013-5-16,83,74,65,61,56,50,83,55,23,30.01,29.98,29.95,6,5,2,20,8,,0.00,2,,14
2013-5-17,90,79,68,61,50,41,73,41,11,30.06,30.00,29.95,6,6,6,20,14,,0.00,,,46
2013-5-18,94,81,68,61,50,43,78,36,12,30.04,29.97,29.92,6,6,6,20,14,,0.00,,,41
2013-5-19,101,86,71,59,48,39,53,28,7,29.95,29.87,29.77,6,4,2,21,8,,0.00,,,359
2013-5-20,91,80,70,64,59,52,78,50,22,29.90,29.86,29.80,6,4,2,18,10,,0.00,,,306
2013-5-21,92,80,69,63,54,43,78,44,13,29.92,29.87,29.83,6,4,4,15,7,,0.00,,,338
2013-5-22,94,82,71,63,53,43,61,38,10,29.92,29.88,29.83,6,6,6,17,8,,0.00,,,18
2013-5-23,96,84,71,64,50,32,78,37,7,29.92,29.87,29.83,6,4,4,18,12,,0.00,,,33
2013-5-24,101,87,73,59,47,28,54,29,8,29.95,29.88,29.83,6,6,6,21,14,,0.00,,,29
2013-5-25,88,78,67,66,59,52,83,54,21,29.98,29.95,29.92,6,6,6,15,12,,0.00,7,,352
2013-5-26,86,76,67,61,55,45,78,51,19,30.01,29.96,29.92,6,4,2,17,10,,0.00,3,,346
2013-5-27,90,78,66,64,50,36,88,44,10,30.06,30.00,29.98,6,4,2,23,10,,0.00,,,9
2013-5-28,97,83,69,43,35,28,33,18,4,30.04,29.99,29.94,6,6,6,17,7,,0.00,,,46
2013-5-29,105,90,75,34,28,21,19,11,4,29.95,29.83,29.71,6,6,6,22,9,,0.00,,,109
2013-5-30,96,86,77,64,52,23,65,33,4,30.40,29.79,29.68,4,3,1,17,12,,0.00,,,300
2013-5-31,106,90,74,66,41,21,78,28,4,29.83,29.75,29.68,6,4,2,22,12,,0.00,,,49